sensor_id;sensor_type;location;lat;lon;timestamp;pressure;altitude;pressure_sealevel;temperature;humidity
67931;BME280;63902;52.000;5.954;2023-02-23T00:00:41;100879.59;;;6.68;100.00
67931;BME280;63902;52.000;5.954;2023-02-23T00:01:41;100868.28;;;6.65;100.00
67931;BME280;63902;52.000;5.954;2023-02-23T00:02:42;100872.63;;;6.66;100.00
67931;BME280;63902;52.000;5.954;2023-02-23T00:03:44;100877.91;;;6.66;100.00
67931;BME280;63902;52.000;5.954;2023-02-23T00:04:45;100872.72;;;6.63;100.00
67931;BME280;63902;52.000;5.954;2023-02-23T00:05:46;100870.91;;;6.65;100.00
67931;BME280;63902;52.000;5.954;2023-02-23T00:06:46;100875.31;;;6.64;100.00
67931;BME280;63902;52.000;5.954;2023-02-23T00:07:47;100871.84;;;6.62;100.00
67931;BME280;63902;52.000;5.954;2023-02-23T00:08:48;100876.25;;;6.62;100.00
67931;BME280;63902;52.000;5.954;2023-02-23T00:09:49;100873.56;;;6.63;100.00
67931;BME280;63902;52.000;5.954;2023-02-23T00:10:49;100869.22;;;6.61;100.00
67931;BME280;63902;52.000;5.954;2023-02-23T00:11:51;100871.84;;;6.62;100.00
67931;BME280;63902;52.000;5.954;2023-02-23T00:12:52;100867.56;;;6.58;100.00
67931;BME280;63902;52.000;5.954;2023-02-23T00:13:53;100873.63;;;6.62;100.00
67931;BME280;63902;52.000;5.954;2023-02-23T00:14:54;100869.22;;;6.61;100.00
67931;BME280;63902;52.000;5.954;2023-02-23T00:15:54;100867.50;;;6.60;100.00
67931;BME280;63902;52.000;5.954;2023-02-23T00:16:55;100870.19;;;6.58;100.00
67931;BME280;63902;52.000;5.954;2023-02-23T00:17:56;100861.47;;;6.55;100.00
67931;BME280;63902;52.000;5.954;2023-02-23T00:18:58;100871.13;;;6.56;100.00
67931;BME280;63902;52.000;5.954;2023-02-23T00:19:59;100869.38;;;6.56;100.00
67931;BME280;63902;52.000;5.954;2023-02-23T00:20:59;100872.84;;;6.57;100.00
67931;BME280;63902;52.000;5.954;2023-02-23T00:22:00;100862.41;;;6.52;100.00
67931;BME280;63902;52.000;5.954;2023-02-23T00:23:00;100865.88;;;6.56;100.00
67931;BME280;63902;52.000;5.954;2023-02-23T00:24:03;100864.13;;;6.55;100.00
67931;BME280;63902;52.000;5.954;2023-02-23T00:25:05;100867.66;;;6.54;100.00
67931;BME280;63902;52.000;5.954;2023-02-23T00:26:06;100848.63;;;6.41;100.00
67931;BME280;63902;52.000;5.954;2023-02-23T00:27:06;100866.81;;;6.53;100.00
67931;BME280;63902;52.000;5.954;2023-02-23T00:28:07;100870.31;;;6.54;100.00
67931;BME280;63902;52.000;5.954;2023-02-23T00:29:11;100846.94;;;6.38;100.00
67931;BME280;63902;52.000;5.954;2023-02-23T00:30:14;100866.81;;;6.52;100.00
67931;BME280;63902;52.000;5.954;2023-02-23T00:31:15;100862.53;;;6.47;100.00
67931;BME280;63902;52.000;5.954;2023-02-23T00:32:17;100862.53;;;6.47;100.00
67931;BME280;63902;52.000;5.954;2023-02-23T00:33:17;100865.97;;;6.51;100.00
67931;BME280;63902;52.000;5.954;2023-02-23T00:34:20;100859.00;;;6.48;100.00
67931;BME280;63902;52.000;5.954;2023-02-23T00:35:20;100864.19;;;6.52;100.00
67931;BME280;63902;52.000;5.954;2023-02-23T00:36:22;100852.16;;;6.41;100.00
67931;BME280;63902;52.000;5.954;2023-02-23T00:37:23;100870.38;;;6.50;100.00
67931;BME280;63902;52.000;5.954;2023-02-23T00:38:23;100865.19;;;6.46;100.00
67931;BME280;63902;52.000;5.954;2023-02-23T00:39:24;100861.63;;;6.48;100.00
67931;BME280;63902;52.000;5.954;2023-02-23T00:40:24;100859.16;;;6.42;100.00
67931;BME280;63902;52.000;5.954;2023-02-23T00:41:25;100866.13;;;6.45;100.00
67931;BME280;63902;52.000;5.954;2023-02-23T00:42:25;100859.22;;;6.39;100.00
67931;BME280;63902;52.000;5.954;2023-02-23T00:43:25;100867.00;;;6.44;100.00
67931;BME280;63902;52.000;5.954;2023-02-23T00:44:26;100869.59;;;6.45;100.00
67931;BME280;63902;52.000;5.954;2023-02-23T00:45:26;100865.25;;;6.44;100.00
67931;BME280;63902;52.000;5.954;2023-02-23T00:46:28;100863.50;;;6.43;100.00
67931;BME280;63902;52.000;5.954;2023-02-23T00:47:29;100867.91;;;6.43;100.00
67931;BME280;63902;52.000;5.954;2023-02-23T00:48:29;100865.28;;;6.43;100.00
67931;BME280;63902;52.000;5.954;2023-02-23T00:49:32;100866.13;;;6.43;100.00
67931;BME280;63902;52.000;5.954;2023-02-23T00:50:33;100872.31;;;6.42;100.00
67931;BME280;63902;52.000;5.954;2023-02-23T00:52:55;100864.44;;;6.41;100.00
67931;BME280;63902;52.000;5.954;2023-02-23T00:53:10;100849.84;;;6.27;100.00
67931;BME280;63902;52.000;5.954;2023-02-23T00:54:17;100841.25;;;6.19;100.00
67931;BME280;63902;52.000;5.954;2023-02-23T00:55:27;100867.22;;;6.35;100.00
67931;BME280;63902;52.000;5.954;2023-02-23T00:56:56;100836.03;;;6.16;100.00
67931;BME280;63902;52.000;5.954;2023-02-23T00:58:08;100836.00;;;6.18;100.00
67931;BME280;63902;52.000;5.954;2023-02-23T00:59:09;100837.78;;;6.17;100.00
67931;BME280;63902;52.000;5.954;2023-02-23T01:00:11;100883.78;;;6.41;100.00
67931;BME280;63902;52.000;5.954;2023-02-23T01:01:12;100876.75;;;6.40;100.00
67931;BME280;63902;52.000;5.954;2023-02-23T01:02:13;100861.09;;;6.34;100.00
67931;BME280;63902;52.000;5.954;2023-02-23T01:03:14;100880.22;;;6.42;100.00
67931;BME280;63902;52.000;5.954;2023-02-23T01:04:14;100875.81;;;6.43;100.00
67931;BME280;63902;52.000;5.954;2023-02-23T01:05:16;100877.59;;;6.41;100.00
67931;BME280;63902;52.000;5.954;2023-02-23T01:06:16;100855.97;;;6.28;100.00
67931;BME280;63902;52.000;5.954;2023-02-23T01:07:17;100880.22;;;6.42;100.00
67931;BME280;63902;52.000;5.954;2023-02-23T01:08:17;100885.50;;;6.42;100.00
67931;BME280;63902;52.000;5.954;2023-02-23T01:09:18;100882.84;;;6.42;100.00
67931;BME280;63902;52.000;5.954;2023-02-23T01:10:19;100880.22;;;6.42;100.00
67931;BME280;63902;52.000;5.954;2023-02-23T01:11:21;100879.31;;;6.43;100.00
67931;BME280;63902;52.000;5.954;2023-02-23T01:12:22;100880.22;;;6.42;100.00
67931;BME280;63902;52.000;5.954;2023-02-23T01:13:29;100846.47;;;6.21;100.00
67931;BME280;63902;52.000;5.954;2023-02-23T01:14:30;100872.50;;;6.35;100.00
67931;BME280;63902;52.000;5.954;2023-02-23T01:16:55;100856.75;;;6.32;100.00
67931;BME280;63902;52.000;5.954;2023-02-23T01:18:36;100835.16;;;6.16;100.00
67931;BME280;63902;52.000;5.954;2023-02-23T01:19:37;100882.88;;;6.41;100.00
67931;BME280;63902;52.000;5.954;2023-02-23T01:20:43;100875.88;;;6.40;100.00
67931;BME280;63902;52.000;5.954;2023-02-23T01:21:43;100872.34;;;6.41;100.00
67931;BME280;63902;52.000;5.954;2023-02-23T01:22:45;100868.84;;;6.40;100.00
67931;BME280;63902;52.000;5.954;2023-02-23T01:23:46;100867.97;;;6.40;100.00
67931;BME280;63902;52.000;5.954;2023-02-23T01:24:47;100860.19;;;6.35;100.00
67931;BME280;63902;52.000;5.954;2023-02-23T01:25:47;100869.72;;;6.41;100.00
67931;BME280;63902;52.000;5.954;2023-02-23T01:26:48;100868.91;;;6.37;100.00
67931;BME280;63902;52.000;5.954;2023-02-23T01:27:48;100874.09;;;6.42;100.00
67931;BME280;63902;52.000;5.954;2023-02-23T01:28:49;100872.31;;;6.42;100.00
67931;BME280;63902;52.000;5.954;2023-02-23T01:29:49;100877.59;;;6.42;100.00
67931;BME280;63902;52.000;5.954;2023-02-23T01:30:53;100873.22;;;6.41;100.00
67931;BME280;63902;52.000;5.954;2023-02-23T01:31:59;100879.38;;;6.42;100.00
67931;BME280;63902;52.000;5.954;2023-02-23T01:33:07;100878.50;;;6.41;100.00
67931;BME280;63902;52.000;5.954;2023-02-23T01:34:12;100880.28;;;6.39;100.00
67931;BME280;63902;52.000;5.954;2023-02-23T01:35:22;100836.00;;;6.18;100.00
67931;BME280;63902;52.000;5.954;2023-02-23T01:36:27;100882.00;;;6.42;100.00
67931;BME280;63902;52.000;5.954;2023-02-23T01:37:28;100887.22;;;6.43;100.00
67931;BME280;63902;52.000;5.954;2023-02-23T01:38:28;100877.66;;;6.39;100.00
67931;BME280;63902;52.000;5.954;2023-02-23T01:39:28;100885.50;;;6.42;100.00
67931;BME280;63902;52.000;5.954;2023-02-23T01:40:30;100875.91;;;6.38;100.00
67931;BME280;63902;52.000;5.954;2023-02-23T01:41:31;100879.44;;;6.39;100.00
67931;BME280;63902;52.000;5.954;2023-02-23T01:42:35;100881.13;;;6.41;100.00
67931;BME280;63902;52.000;5.954;2023-02-23T01:43:54;100883.69;;;6.44;100.00
67931;BME280;63902;52.000;5.954;2023-02-23T01:45:18;100884.56;;;6.45;100.00
67931;BME280;63902;52.000;5.954;2023-02-23T01:46:20;100874.09;;;6.42;100.00
67931;BME280;63902;52.000;5.954;2023-02-23T01:47:21;100880.16;;;6.45;100.00
67931;BME280;63902;52.000;5.954;2023-02-23T01:48:23;100879.31;;;6.43;100.00
67931;BME280;63902;52.000;5.954;2023-02-23T01:49:27;100879.28;;;6.45;100.00
67931;BME280;63902;52.000;5.954;2023-02-23T01:50:39;100869.75;;;6.39;100.00
67931;BME280;63902;52.000;5.954;2023-02-23T01:51:45;100881.91;;;6.45;100.00
67931;BME280;63902;52.000;5.954;2023-02-23T01:52:49;100858.53;;;6.31;100.00
67931;BME280;63902;52.000;5.954;2023-02-23T01:53:56;100886.34;;;6.44;100.00
67931;BME280;63902;52.000;5.954;2023-02-23T01:54:57;100886.28;;;6.46;100.00
67931;BME280;63902;52.000;5.954;2023-02-23T01:56:00;100870.59;;;6.41;100.00
67931;BME280;63902;52.000;5.954;2023-02-23T01:57:04;100874.09;;;6.42;100.00
67931;BME280;63902;52.000;5.954;2023-02-23T01:58:08;100876.66;;;6.45;100.00
67931;BME280;63902;52.000;5.954;2023-02-23T01:59:11;100881.94;;;6.43;100.00
67931;BME280;63902;52.000;5.954;2023-02-23T02:00:14;100873.22;;;6.41;100.00
67931;BME280;63902;52.000;5.954;2023-02-23T02:01:15;100883.69;;;6.44;100.00
67931;BME280;63902;52.000;5.954;2023-02-23T02:02:16;100883.69;;;6.44;100.00
67931;BME280;63902;52.000;5.954;2023-02-23T02:03:26;100882.84;;;6.42;100.00
67931;BME280;63902;52.000;5.954;2023-02-23T02:04:28;100866.31;;;6.36;100.00
67931;BME280;63902;52.000;5.954;2023-02-23T02:05:30;100879.38;;;6.42;100.00
67931;BME280;63902;52.000;5.954;2023-02-23T02:06:31;100882.00;;;6.42;100.00
67931;BME280;63902;52.000;5.954;2023-02-23T02:07:34;100880.22;;;6.42;100.00
67931;BME280;63902;52.000;5.954;2023-02-23T02:08:36;100871.56;;;6.37;100.00
67931;BME280;63902;52.000;5.954;2023-02-23T02:09:38;100850.72;;;6.26;100.00
67931;BME280;63902;52.000;5.954;2023-02-23T02:10:39;100883.78;;;6.41;100.00
67931;BME280;63902;52.000;5.954;2023-02-23T02:11:39;100880.25;;;6.41;100.00
67931;BME280;63902;52.000;5.954;2023-02-23T02:12:42;100882.88;;;6.41;100.00
67931;BME280;63902;52.000;5.954;2023-02-23T02:13:43;100849.16;;;6.18;100.00
67931;BME280;63902;52.000;5.954;2023-02-23T02:14:44;100881.16;;;6.40;100.00
67931;BME280;63902;52.000;5.954;2023-02-23T02:16:07;100884.69;;;6.39;100.00
67931;BME280;63902;52.000;5.954;2023-02-23T02:17:17;100885.59;;;6.38;100.00
67931;BME280;63902;52.000;5.954;2023-02-23T02:18:27;100886.44;;;6.38;100.00
67931;BME280;63902;52.000;5.954;2023-02-23T02:21:53;100883.00;;;6.36;100.00
67931;BME280;63902;52.000;5.954;2023-02-23T02:25:26;100879.53;;;6.33;100.00
67931;BME280;63902;52.000;5.954;2023-02-23T02:26:37;100888.28;;;6.35;100.00
67931;BME280;63902;52.000;5.954;2023-02-23T02:28:04;100883.88;;;6.35;100.00
67931;BME280;63902;52.000;5.954;2023-02-23T02:29:39;100885.72;;;6.33;100.00
67931;BME280;63902;52.000;5.954;2023-02-23T02:30:58;100878.63;;;6.35;100.00
67931;BME280;63902;52.000;5.954;2023-02-23T02:37:01;100873.41;;;6.32;100.00
67931;BME280;63902;52.000;5.954;2023-02-23T02:38:11;100876.91;;;6.34;100.00
67931;BME280;63902;52.000;5.954;2023-02-23T02:39:21;100864.63;;;6.33;100.00
67931;BME280;63902;52.000;5.954;2023-02-23T02:40:27;100866.34;;;6.34;100.00
67931;BME280;63902;52.000;5.954;2023-02-23T02:41:34;100866.34;;;6.34;100.00
67931;BME280;63902;52.000;5.954;2023-02-23T02:42:47;100862.97;;;6.29;100.00
67931;BME280;63902;52.000;5.954;2023-02-23T02:43:56;100869.91;;;6.33;100.00
67931;BME280;63902;52.000;5.954;2023-02-23T02:45:02;100872.56;;;6.32;100.00
67931;BME280;63902;52.000;5.954;2023-02-23T02:46:12;100869.94;;;6.32;100.00
67931;BME280;63902;52.000;5.954;2023-02-23T02:47:18;100859.41;;;6.30;100.00
67931;BME280;63902;52.000;5.954;2023-02-23T02:48:29;100871.78;;;6.28;100.00
67931;BME280;63902;52.000;5.954;2023-02-23T02:49:44;100871.69;;;6.31;100.00
67931;BME280;63902;52.000;5.954;2023-02-23T02:50:52;100867.47;;;6.24;100.00
67931;BME280;63902;52.000;5.954;2023-02-23T02:51:59;100871.78;;;6.28;100.00
67931;BME280;63902;52.000;5.954;2023-02-23T02:53:06;100872.56;;;6.30;100.00
67931;BME280;63902;52.000;5.954;2023-02-23T02:54:10;100860.47;;;6.23;100.00
67931;BME280;63902;52.000;5.954;2023-02-23T02:55:15;100871.72;;;6.30;100.00
67931;BME280;63902;52.000;5.954;2023-02-23T02:56:19;100869.94;;;6.30;100.00
67931;BME280;63902;52.000;5.954;2023-02-23T02:57:24;100876.09;;;6.31;100.00
67931;BME280;63902;52.000;5.954;2023-02-23T02:58:25;100863.88;;;6.26;100.00
67931;BME280;63902;52.000;5.954;2023-02-23T02:59:27;100871.72;;;6.30;100.00
67931;BME280;63902;52.000;5.954;2023-02-23T03:00:35;100868.22;;;6.29;100.00
67931;BME280;63902;52.000;5.954;2023-02-23T03:01:36;100859.59;;;6.22;100.00
67931;BME280;63902;52.000;5.954;2023-02-23T03:02:38;100870.84;;;6.29;100.00
67931;BME280;63902;52.000;5.954;2023-02-23T03:03:41;100872.63;;;6.28;100.00
67931;BME280;63902;52.000;5.954;2023-02-23T03:04:42;100869.09;;;6.30;100.00
67931;BME280;63902;52.000;5.954;2023-02-23T03:05:46;100865.59;;;6.29;100.00
67931;BME280;63902;52.000;5.954;2023-02-23T03:06:52;100871.78;;;6.28;100.00
67931;BME280;63902;52.000;5.954;2023-02-23T03:08:03;100875.25;;;6.28;100.00
67931;BME280;63902;52.000;5.954;2023-02-23T03:09:13;100864.75;;;6.27;100.00
67931;BME280;63902;52.000;5.954;2023-02-23T03:10:23;100876.19;;;6.27;100.00
67931;BME280;63902;52.000;5.954;2023-02-23T03:11:33;100870.91;;;6.27;100.00
67931;BME280;63902;52.000;5.954;2023-02-23T03:12:42;100868.28;;;6.26;100.00
67931;BME280;63902;52.000;5.954;2023-02-23T03:13:52;100873.56;;;6.26;100.00
67931;BME280;63902;52.000;5.954;2023-02-23T03:15:05;100868.38;;;6.23;100.00
67931;BME280;63902;52.000;5.954;2023-02-23T03:16:19;100868.44;;;6.20;100.00
67931;BME280;63902;52.000;5.954;2023-02-23T03:17:24;100877.03;;;6.28;100.00
67931;BME280;63902;52.000;5.954;2023-02-23T03:18:39;100856.22;;;6.16;100.00
67931;BME280;63902;52.000;5.954;2023-02-23T03:19:50;100879.66;;;6.28;100.00
67931;BME280;63902;52.000;5.954;2023-02-23T03:20:58;100881.44;;;6.27;100.00
67931;BME280;63902;52.000;5.954;2023-02-23T03:22:07;100878.81;;;6.27;100.00
67931;BME280;63902;52.000;5.954;2023-02-23T03:23:18;100880.56;;;6.27;100.00
67931;BME280;63902;52.000;5.954;2023-02-23T03:24:26;100884.09;;;6.26;100.00
67931;BME280;63902;52.000;5.954;2023-02-23T03:25:34;100882.31;;;6.28;100.00
67931;BME280;63902;52.000;5.954;2023-02-23T03:26:44;100883.31;;;6.22;100.00
67931;BME280;63902;52.000;5.954;2023-02-23T03:27:53;100887.59;;;6.26;100.00
67931;BME280;63902;52.000;5.954;2023-02-23T03:29:01;100886.72;;;6.27;100.00
67931;BME280;63902;52.000;5.954;2023-02-23T03:30:09;100883.19;;;6.27;100.00
67931;BME280;63902;52.000;5.954;2023-02-23T03:31:19;100885.81;;;6.27;100.00
67931;BME280;63902;52.000;5.954;2023-02-23T03:32:25;100889.34;;;6.27;100.00
67931;BME280;63902;52.000;5.954;2023-02-23T03:33:34;100888.47;;;6.27;100.00
67931;BME280;63902;52.000;5.954;2023-02-23T03:34:41;100885.00;;;6.25;100.00
67931;BME280;63902;52.000;5.954;2023-02-23T03:35:49;100885.91;;;6.24;100.00
67931;BME280;63902;52.000;5.954;2023-02-23T03:36:54;100880.63;;;6.24;100.00
67931;BME280;63902;52.000;5.954;2023-02-23T03:38:02;100895.50;;;6.26;100.00
67931;BME280;63902;52.000;5.954;2023-02-23T03:39:12;100887.66;;;6.25;100.00
67931;BME280;63902;52.000;5.954;2023-02-23T03:40:18;100888.50;;;6.25;100.00
67931;BME280;63902;52.000;5.954;2023-02-23T03:41:20;100889.38;;;6.26;100.00
67931;BME280;63902;52.000;5.954;2023-02-23T03:42:25;100884.13;;;6.24;100.00
67931;BME280;63902;52.000;5.954;2023-02-23T03:43:31;100879.84;;;6.19;100.00
67931;BME280;63902;52.000;5.954;2023-02-23T03:44:38;100888.53;;;6.24;100.00
67931;BME280;63902;52.000;5.954;2023-02-23T03:45:42;100875.47;;;6.19;100.00
67931;BME280;63902;52.000;5.954;2023-02-23T03:46:45;100890.31;;;6.23;100.00
67931;BME280;63902;52.000;5.954;2023-02-23T03:47:47;100889.44;;;6.23;100.00
67931;BME280;63902;52.000;5.954;2023-02-23T03:48:52;100887.72;;;6.22;100.00
67931;BME280;63902;52.000;5.954;2023-02-23T03:49:55;100890.34;;;6.22;100.00
67931;BME280;63902;52.000;5.954;2023-02-23T03:51:00;100892.09;;;6.21;100.00
67931;BME280;63902;52.000;5.954;2023-02-23T03:52:09;100904.38;;;6.22;100.00
67931;BME280;63902;52.000;5.954;2023-02-23T03:53:13;100900.88;;;6.22;100.00
67931;BME280;63902;52.000;5.954;2023-02-23T03:54:20;100880.13;;;6.08;100.00
67931;BME280;63902;52.000;5.954;2023-02-23T03:55:28;100893.03;;;6.19;100.00
67931;BME280;63902;52.000;5.954;2023-02-23T03:56:32;100903.53;;;6.22;100.00
67931;BME280;63902;52.000;5.954;2023-02-23T03:57:36;100903.53;;;6.22;100.00
67931;BME280;63902;52.000;5.954;2023-02-23T03:58:43;100893.09;;;6.16;100.00
67931;BME280;63902;52.000;5.954;2023-02-23T03:59:49;100903.53;;;6.22;100.00
67931;BME280;63902;52.000;5.954;2023-02-23T04:00:55;100900.13;;;6.17;100.00
67931;BME280;63902;52.000;5.954;2023-02-23T04:01:58;100903.53;;;6.20;100.00
67931;BME280;63902;52.000;5.954;2023-02-23T04:03:01;100901.81;;;6.19;100.00
67931;BME280;63902;52.000;5.954;2023-02-23T04:04:04;100901.75;;;6.21;100.00
67931;BME280;63902;52.000;5.954;2023-02-23T04:05:10;100894.00;;;6.15;100.00
67931;BME280;63902;52.000;5.954;2023-02-23T04:06:13;100897.41;;;6.20;100.00
67931;BME280;63902;52.000;5.954;2023-02-23T04:07:18;100906.19;;;6.19;100.00
67931;BME280;63902;52.000;5.954;2023-02-23T04:08:20;100905.31;;;6.20;100.00
67931;BME280;63902;52.000;5.954;2023-02-23T04:09:23;100900.91;;;6.19;100.00
67931;BME280;63902;52.000;5.954;2023-02-23T04:10:25;100901.88;;;6.16;100.00
67931;BME280;63902;52.000;5.954;2023-02-23T04:11:31;100903.56;;;6.19;100.00
67931;BME280;63902;52.000;5.954;2023-02-23T04:12:38;100907.03;;;6.21;100.00
67931;BME280;63902;52.000;5.954;2023-02-23T04:13:42;100905.31;;;6.20;100.00
67931;BME280;63902;52.000;5.954;2023-02-23T04:14:47;100906.16;;;6.20;100.00
67931;BME280;63902;52.000;5.954;2023-02-23T04:15:53;100907.94;;;6.20;100.00
67931;BME280;63902;52.000;5.954;2023-02-23T04:16:56;100906.16;;;6.20;100.00
67931;BME280;63902;52.000;5.954;2023-02-23T04:17:57;100916.69;;;6.22;100.00
67931;BME280;63902;52.000;5.954;2023-02-23T04:18:58;100905.25;;;6.21;100.00
67931;BME280;63902;52.000;5.954;2023-02-23T04:19:59;100908.81;;;6.19;100.00
67931;BME280;63902;52.000;5.954;2023-02-23T04:20:59;100913.16;;;6.21;100.00
67931;BME280;63902;52.000;5.954;2023-02-23T04:22:00;100918.44;;;6.21;100.00
67931;BME280;63902;52.000;5.954;2023-02-23T04:23:01;100906.25;;;6.17;100.00
67931;BME280;63902;52.000;5.954;2023-02-23T04:24:01;100915.78;;;6.23;100.00
67931;BME280;63902;52.000;5.954;2023-02-23T04:25:04;100915.78;;;6.23;100.00
67931;BME280;63902;52.000;5.954;2023-02-23T04:26:05;100903.56;;;6.19;100.00
67931;BME280;63902;52.000;5.954;2023-02-23T04:27:05;100913.16;;;6.23;100.00
67931;BME280;63902;52.000;5.954;2023-02-23T04:28:06;100911.44;;;6.20;100.00
67931;BME280;63902;52.000;5.954;2023-02-23T04:29:06;100914.06;;;6.22;100.00
67931;BME280;63902;52.000;5.954;2023-02-23T04:30:08;100916.69;;;6.22;100.00
67931;BME280;63902;52.000;5.954;2023-02-23T04:31:08;100916.72;;;6.20;100.00
67931;BME280;63902;52.000;5.954;2023-02-23T04:32:12;100913.22;;;6.20;100.00
67931;BME280;63902;52.000;5.954;2023-02-23T04:33:13;100919.31;;;6.22;100.00
67931;BME280;63902;52.000;5.954;2023-02-23T04:34:14;100920.19;;;6.21;100.00
67931;BME280;63902;52.000;5.954;2023-02-23T04:35:14;100908.00;;;6.17;100.00
67931;BME280;63902;52.000;5.954;2023-02-23T04:36:15;100921.97;;;6.20;100.00
67931;BME280;63902;52.000;5.954;2023-02-23T04:37:15;100909.75;;;6.18;100.00
67931;BME280;63902;52.000;5.954;2023-02-23T04:38:16;100924.59;;;6.20;100.00
67931;BME280;63902;52.000;5.954;2023-02-23T04:39:16;100923.75;;;6.20;100.00
67931;BME280;63902;52.000;5.954;2023-02-23T04:40:18;100922.84;;;6.21;100.00
67931;BME280;63902;52.000;5.954;2023-02-23T04:41:19;100910.72;;;6.14;100.00
67931;BME280;63902;52.000;5.954;2023-02-23T04:42:19;100926.38;;;6.20;100.00
67931;BME280;63902;52.000;5.954;2023-02-23T04:43:20;100917.63;;;6.19;100.00
67931;BME280;63902;52.000;5.954;2023-02-23T04:44:20;100924.63;;;6.19;100.00
67931;BME280;63902;52.000;5.954;2023-02-23T04:45:22;100923.75;;;6.20;100.00
67931;BME280;63902;52.000;5.954;2023-02-23T04:46:23;100929.00;;;6.20;100.00
67931;BME280;63902;52.000;5.954;2023-02-23T04:47:23;100930.75;;;6.21;100.00
67931;BME280;63902;52.000;5.954;2023-02-23T04:48:24;100933.38;;;6.21;100.00
67931;BME280;63902;52.000;5.954;2023-02-23T04:49:24;100926.38;;;6.20;100.00
67931;BME280;63902;52.000;5.954;2023-02-23T04:50:25;100933.38;;;6.21;100.00
67931;BME280;63902;52.000;5.954;2023-02-23T04:51:25;100927.25;;;6.20;100.00
67931;BME280;63902;52.000;5.954;2023-02-23T04:52:25;100927.25;;;6.19;100.00
67931;BME280;63902;52.000;5.954;2023-02-23T04:53:26;100925.47;;;6.21;100.00
67931;BME280;63902;52.000;5.954;2023-02-23T04:54:27;100930.75;;;6.21;100.00
67931;BME280;63902;52.000;5.954;2023-02-23T04:55:28;100925.53;;;6.19;100.00
67931;BME280;63902;52.000;5.954;2023-02-23T04:56:29;100928.97;;;6.21;100.00
67931;BME280;63902;52.000;5.954;2023-02-23T04:57:30;100917.72;;;6.15;100.00
67931;BME280;63902;52.000;5.954;2023-02-23T04:58:30;100930.75;;;6.21;100.00
67931;BME280;63902;52.000;5.954;2023-02-23T04:59:31;100929.91;;;6.19;100.00
67931;BME280;63902;52.000;5.954;2023-02-23T05:00:31;100924.69;;;6.16;100.00
67931;BME280;63902;52.000;5.954;2023-02-23T05:01:32;100926.44;;;6.17;100.00
67931;BME280;63902;52.000;5.954;2023-02-23T05:02:32;100926.41;;;6.18;100.00
67931;BME280;63902;52.000;5.954;2023-02-23T05:03:33;100923.81;;;6.17;100.00
67931;BME280;63902;52.000;5.954;2023-02-23T05:04:33;100929.09;;;6.15;100.00
67931;BME280;63902;52.000;5.954;2023-02-23T05:05:34;100926.44;;;6.17;100.00
67931;BME280;63902;52.000;5.954;2023-02-23T05:06:34;100935.22;;;6.17;100.00
67931;BME280;63902;52.000;5.954;2023-02-23T05:07:36;100929.09;;;6.17;100.00
67931;BME280;63902;52.000;5.954;2023-02-23T05:08:36;100929.97;;;6.16;100.00
67931;BME280;63902;52.000;5.954;2023-02-23T05:09:37;100932.66;;;6.14;100.00
67931;BME280;63902;52.000;5.954;2023-02-23T05:10:39;100930.94;;;6.12;100.00
67931;BME280;63902;52.000;5.954;2023-02-23T05:11:39;100938.75;;;6.16;100.00
67931;BME280;63902;52.000;5.954;2023-02-23T05:12:40;100918.69;;;6.11;100.00
67931;BME280;63902;52.000;5.954;2023-02-23T05:13:40;100936.97;;;6.17;100.00
67931;BME280;63902;52.000;5.954;2023-02-23T05:14:41;100934.34;;;6.17;100.00
67931;BME280;63902;52.000;5.954;2023-02-23T05:15:41;100935.28;;;6.13;100.00
67931;BME280;63902;52.000;5.954;2023-02-23T05:16:42;100930.94;;;6.12;100.00
67931;BME280;63902;52.000;5.954;2023-02-23T05:17:42;100939.63;;;6.15;100.00
67931;BME280;63902;52.000;5.954;2023-02-23T05:18:43;100936.16;;;6.13;100.00
67931;BME280;63902;52.000;5.954;2023-02-23T05:19:43;100946.69;;;6.15;100.00
67931;BME280;63902;52.000;5.954;2023-02-23T05:20:44;100941.41;;;6.15;100.00
67931;BME280;63902;52.000;5.954;2023-02-23T05:21:44;100951.03;;;6.16;100.00
67931;BME280;63902;52.000;5.954;2023-02-23T05:22:44;100937.88;;;6.16;100.00
67931;BME280;63902;52.000;5.954;2023-02-23T05:23:45;100928.31;;;6.12;100.00
67931;BME280;63902;52.000;5.954;2023-02-23T05:24:45;100951.03;;;6.16;100.00
67931;BME280;63902;52.000;5.954;2023-02-23T05:25:47;100938.78;;;6.15;100.00
67931;BME280;63902;52.000;5.954;2023-02-23T05:26:48;100946.69;;;6.15;100.00
67931;BME280;63902;52.000;5.954;2023-02-23T05:27:48;100937.91;;;6.14;100.00
67931;BME280;63902;52.000;5.954;2023-02-23T05:28:49;100939.69;;;6.12;100.00
67931;BME280;63902;52.000;5.954;2023-02-23T05:29:49;100944.09;;;6.12;100.00
67931;BME280;63902;52.000;5.954;2023-02-23T05:30:50;100944.06;;;6.13;100.00
67931;BME280;63902;52.000;5.954;2023-02-23T05:31:50;100949.31;;;6.13;100.00
67931;BME280;63902;52.000;5.954;2023-02-23T05:32:50;100947.59;;;6.12;100.00
67931;BME280;63902;52.000;5.954;2023-02-23T05:33:51;100944.09;;;6.12;100.00
67931;BME280;63902;52.000;5.954;2023-02-23T05:34:51;100950.28;;;6.11;100.00
67931;BME280;63902;52.000;5.954;2023-02-23T05:35:52;100944.09;;;6.12;100.00
67931;BME280;63902;52.000;5.954;2023-02-23T05:36:53;100946.69;;;6.13;100.00
67931;BME280;63902;52.000;5.954;2023-02-23T05:37:53;100949.38;;;6.12;100.00
67931;BME280;63902;52.000;5.954;2023-02-23T05:38:54;100951.09;;;6.13;100.00
67931;BME280;63902;52.000;5.954;2023-02-23T05:39:54;100922.56;;;5.91;100.00
67931;BME280;63902;52.000;5.954;2023-02-23T05:40:56;100949.38;;;6.12;100.00
67931;BME280;63902;52.000;5.954;2023-02-23T05:41:56;100952.06;;;6.09;100.00
67931;BME280;63902;52.000;5.954;2023-02-23T05:42:58;100956.41;;;6.11;100.00
67931;BME280;63902;52.000;5.954;2023-02-23T05:43:58;100938.97;;;6.05;100.00
67931;BME280;63902;52.000;5.954;2023-02-23T05:44:59;100951.16;;;6.10;100.00